createdAt,value
2023-03-28T00:00:17.111Z,-0.28
2023-03-28T00:05:42.506Z,-0.40
2023-03-28T00:10:48.574Z,-0.46
2023-03-28T00:15:53.861Z,-0.51
2023-03-28T00:21:00.227Z,-0.54
2023-03-28T00:26:13.230Z,-0.54
2023-03-28T00:31:19.512Z,-0.57
2023-03-28T00:36:29.768Z,-0.60
2023-03-28T00:41:37.412Z,-0.63
2023-03-28T00:46:43.507Z,-0.65
2023-03-28T00:51:55.370Z,-0.67
2023-03-28T00:57:02.425Z,-0.68
2023-03-28T01:02:08.480Z,-0.70
2023-03-28T01:07:16.411Z,-0.68
2023-03-28T01:12:23.054Z,-0.69
2023-03-28T01:17:30.738Z,-0.71
2023-03-28T01:22:56.120Z,-0.71
2023-03-28T01:28:09.899Z,-0.72
2023-03-28T01:33:39.371Z,-0.71
2023-03-28T01:38:51.936Z,-0.67
2023-03-28T01:44:06.173Z,-0.62
2023-03-28T01:49:18.261Z,-0.57
2023-03-28T01:54:29.270Z,-0.50
2023-03-28T01:59:38.690Z,-0.47
2023-03-28T02:04:48.203Z,-0.49
2023-03-28T02:09:55.955Z,-0.58
2023-03-28T02:15:06.045Z,-0.70
2023-03-28T02:20:16.468Z,-0.76
2023-03-28T02:25:22.397Z,-0.81
2023-03-28T02:30:28.402Z,-0.85
2023-03-28T02:35:46.246Z,-0.89
2023-03-28T02:41:02.614Z,-0.94
2023-03-28T02:46:19.227Z,-0.97
2023-03-28T02:51:34.798Z,-1.00
2023-03-28T02:56:52.981Z,-0.99
2023-03-28T03:01:58.748Z,-0.95
2023-03-28T03:07:04.162Z,-0.91
2023-03-28T03:12:09.634Z,-0.85
2023-03-28T03:17:15.377Z,-0.79
2023-03-28T03:22:21.415Z,-0.75
2023-03-28T03:27:27.206Z,-0.74
2023-03-28T03:32:33.301Z,-0.77
2023-03-28T03:37:38.922Z,-0.81
2023-03-28T03:42:44.167Z,-0.85
2023-03-28T03:47:49.618Z,-0.86
2023-03-28T03:52:54.989Z,-0.88
2023-03-28T03:58:01.196Z,-0.93
2023-03-28T04:03:06.583Z,-0.99
2023-03-28T04:08:12.318Z,-1.03
2023-03-28T04:13:17.717Z,-1.07
2023-03-28T04:18:23.047Z,-1.10
2023-03-28T04:23:28.534Z,-1.13
2023-03-28T04:28:33.898Z,-1.14
2023-03-28T04:33:40.238Z,-1.15
2023-03-28T04:38:45.751Z,-1.18
2023-03-28T04:43:51.052Z,-1.17
2023-03-28T04:48:57.142Z,-1.11
2023-03-28T04:54:02.562Z,-1.05
2023-03-28T04:59:08.217Z,-1.00
2023-03-28T05:04:13.535Z,-0.97
2023-03-28T05:09:19.496Z,-0.97
2023-03-28T05:14:24.877Z,-0.91
2023-03-28T05:19:30.284Z,-0.84
2023-03-28T05:24:37.023Z,-0.79
2023-03-28T05:29:42.683Z,-0.77
2023-03-28T05:34:48.251Z,-0.81
2023-03-28T05:39:53.577Z,-0.89
2023-03-28T05:44:58.862Z,-0.93
2023-03-28T05:50:04.671Z,-0.90
2023-03-28T05:55:10.526Z,-0.85
2023-03-28T06:00:19.512Z,-0.72
2023-03-28T06:05:25.034Z,-0.44
2023-03-28T06:10:30.931Z,-0.17
2023-03-28T06:15:36.540Z,0.12
2023-03-28T06:20:42.004Z,0.46
2023-03-28T06:25:47.274Z,0.74
2023-03-28T06:30:52.849Z,1.01
2023-03-28T06:35:58.210Z,1.78
2023-03-28T06:41:03.672Z,2.33
2023-03-28T06:46:11.036Z,2.32
2023-03-28T06:51:16.696Z,2.56
2023-03-28T06:56:22.048Z,2.55
2023-03-28T07:01:27.517Z,2.58
2023-03-28T07:06:32.945Z,2.69
2023-03-28T07:11:38.297Z,2.73
2023-03-28T07:16:43.695Z,2.82
2023-03-28T07:21:49.667Z,2.85
2023-03-28T07:27:07.967Z,2.91
2023-03-28T07:32:20.976Z,2.95
2023-03-28T07:37:26.201Z,3.02
2023-03-28T07:42:31.548Z,3.06
2023-03-28T07:47:36.848Z,3.25
2023-03-28T07:52:45.719Z,3.45
2023-03-28T07:57:51.249Z,3.59
2023-03-28T08:02:58.914Z,3.74
2023-03-28T08:08:05.294Z,3.84
2023-03-28T08:13:10.724Z,3.92
2023-03-28T08:18:20.928Z,4.10
2023-03-28T08:23:26.854Z,4.24
2023-03-28T08:28:33.321Z,4.63
2023-03-28T08:33:38.828Z,4.83
2023-03-28T08:38:46.009Z,4.70
2023-03-28T08:44:04.865Z,4.72
2023-03-28T08:49:15.402Z,4.81
2023-03-28T08:54:24.287Z,4.55
2023-03-28T08:59:46.145Z,4.45
2023-03-28T09:04:51.467Z,4.86
2023-03-28T09:10:11.328Z,5.03
2023-03-28T09:15:25.182Z,4.88
2023-03-28T09:20:36.694Z,4.54
2023-03-28T09:25:44.679Z,4.19
2023-03-28T09:30:53.353Z,3.95
2023-03-28T09:35:59.049Z,3.73
2023-03-28T09:41:11.755Z,3.57
2023-03-28T09:46:24.627Z,3.59
2023-03-28T09:51:30.007Z,3.62
2023-03-28T09:56:39.813Z,3.65
2023-03-28T10:01:46.998Z,3.74
2023-03-28T10:06:56.246Z,4.02
2023-03-28T10:12:09.481Z,4.13
2023-03-28T10:17:22.102Z,4.03
2023-03-28T10:22:31.533Z,4.01
2023-03-28T10:27:40.982Z,4.52
2023-03-28T10:33:06.420Z,5.02
2023-03-28T10:38:18.365Z,5.45
2023-03-28T10:43:33.948Z,5.49
2023-03-28T10:48:41.879Z,5.57
2023-03-28T10:54:09.254Z,5.92
2023-03-28T10:59:31.389Z,5.85
2023-03-28T11:05:01.525Z,6.01
2023-03-28T11:10:19.622Z,6.18
2023-03-28T11:15:31.356Z,6.36
2023-03-28T11:20:51.531Z,6.41
2023-03-28T11:26:08.757Z,6.67
2023-03-28T11:31:22.318Z,6.74
2023-03-28T11:36:33.938Z,6.77
2023-03-28T11:41:42.471Z,6.86
2023-03-28T11:46:53.141Z,6.70
2023-03-28T11:52:02.505Z,7.02
2023-03-28T11:57:18.326Z,7.16
2023-03-28T12:02:39.464Z,7.05
2023-03-28T12:07:48.445Z,6.94
2023-03-28T12:13:03.488Z,6.84
2023-03-28T12:18:14.980Z,6.57
2023-03-28T12:23:25.453Z,6.05
2023-03-28T12:28:39.944Z,6.23
2023-03-28T12:33:55.972Z,5.96
2023-03-28T12:39:12.593Z,6.05
2023-03-28T12:44:25.934Z,6.16
2023-03-28T12:49:39.845Z,6.40
2023-03-28T12:55:02.255Z,6.39
2023-03-28T13:00:23.259Z,6.31
2023-03-28T13:05:39.050Z,6.05
2023-03-28T13:10:57.210Z,6.20
2023-03-28T13:16:14.345Z,6.48
2023-03-28T13:21:46.681Z,7.24
2023-03-28T13:27:00.824Z,7.76
2023-03-28T13:32:07.008Z,7.99
2023-03-28T13:37:24.129Z,8.04
2023-03-28T13:42:33.387Z,8.07
2023-03-28T13:47:42.341Z,7.98
2023-03-28T13:52:47.743Z,7.90
2023-03-28T13:57:53.805Z,7.58
2023-03-28T14:03:11.261Z,7.21
2023-03-28T14:08:25.895Z,7.33
2023-03-28T14:13:31.199Z,7.49
2023-03-28T14:18:41.969Z,7.57
2023-03-28T14:24:00.546Z,7.54
2023-03-28T14:29:11.313Z,7.40
2023-03-28T14:34:24.201Z,7.46
2023-03-28T14:39:33.482Z,7.45
2023-03-28T14:44:42.139Z,7.46
2023-03-28T14:49:48.011Z,7.48
2023-03-28T14:54:53.416Z,7.47
2023-03-28T15:00:00.010Z,7.47
2023-03-28T15:05:08.914Z,7.32
2023-03-28T15:10:23.577Z,7.20
2023-03-28T15:15:32.209Z,7.24
2023-03-28T15:20:42.768Z,7.18
2023-03-28T15:25:48.239Z,7.14
2023-03-28T15:30:56.479Z,7.16
2023-03-28T15:36:12.639Z,7.09
2023-03-28T15:41:24.314Z,7.08
2023-03-28T15:46:33.995Z,7.10
2023-03-28T15:51:52.771Z,7.10
2023-03-28T15:57:01.059Z,6.92
2023-03-28T16:02:32.636Z,6.61
2023-03-28T16:07:50.684Z,6.28
2023-03-28T16:12:57.738Z,6.05
2023-03-28T16:18:03.364Z,6.01
2023-03-28T16:23:08.950Z,5.97
2023-03-28T16:28:18.620Z,5.98
2023-03-28T16:33:24.744Z,5.97
2023-03-28T16:38:30.446Z,5.96
2023-03-28T16:43:37.842Z,5.91
2023-03-28T16:48:43.153Z,5.85
2023-03-28T16:53:48.635Z,5.81
2023-03-28T16:58:54.177Z,5.75
2023-03-28T17:03:59.635Z,5.66
2023-03-28T17:09:04.995Z,5.60
2023-03-28T17:14:10.341Z,5.50
2023-03-28T17:19:19.261Z,5.45
2023-03-28T17:24:25.120Z,5.32
2023-03-28T17:29:30.993Z,5.13
2023-03-28T17:34:36.771Z,4.97
2023-03-28T17:39:42.420Z,4.82
2023-03-28T17:44:48.514Z,4.66
2023-03-28T17:49:56.819Z,4.55
2023-03-28T17:55:02.843Z,4.44
2023-03-28T18:00:10.120Z,4.34
2023-03-28T18:05:17.191Z,4.22
2023-03-28T18:10:22.857Z,4.07
2023-03-28T18:15:31.390Z,3.79
2023-03-28T18:20:36.737Z,3.64
2023-03-28T18:25:43.270Z,3.56
2023-03-28T18:30:48.722Z,3.45
2023-03-28T18:35:54.189Z,3.33
2023-03-28T18:40:59.523Z,3.24
2023-03-28T18:46:07.814Z,3.12
2023-03-28T18:51:13.864Z,2.98
2023-03-28T18:56:19.694Z,2.89
2023-03-28T19:01:25.054Z,2.73
2023-03-28T19:06:30.711Z,2.56
2023-03-28T19:11:36.332Z,2.49
2023-03-28T19:16:41.669Z,2.42
2023-03-28T19:21:47.350Z,2.31
2023-03-28T19:26:57.623Z,2.25
2023-03-28T19:32:09.745Z,2.22
2023-03-28T19:37:15.238Z,2.20
2023-03-28T19:42:21.436Z,2.14
2023-03-28T19:47:27.249Z,2.07
2023-03-28T19:52:33.217Z,2.03
2023-03-28T19:57:38.972Z,1.97
2023-03-28T20:02:44.576Z,1.86
2023-03-28T20:07:50.056Z,1.82
2023-03-28T20:12:55.366Z,1.78
2023-03-28T20:18:04.693Z,1.76
2023-03-28T20:23:11.767Z,1.73
2023-03-28T20:28:17.267Z,1.71
2023-03-28T20:33:22.785Z,1.67
2023-03-28T20:38:40.864Z,1.63
2023-03-28T20:43:50.433Z,1.52
2023-03-28T20:48:56.899Z,1.46
2023-03-28T20:54:04.169Z,1.40
2023-03-28T20:59:09.892Z,1.34
2023-03-28T21:04:15.839Z,1.22
2023-03-28T21:09:21.242Z,1.09
2023-03-28T21:14:26.757Z,1.00
2023-03-28T21:19:32.023Z,0.95
2023-03-28T21:24:37.452Z,0.92
2023-03-28T21:29:42.825Z,0.87
2023-03-28T21:34:48.461Z,0.81
2023-03-28T21:39:53.979Z,0.77
2023-03-28T21:44:59.335Z,0.75
2023-03-28T21:50:05.943Z,0.75
2023-03-28T21:55:11.640Z,0.76
2023-03-28T22:00:18.018Z,0.79
2023-03-28T22:05:29.605Z,0.77
2023-03-28T22:10:36.764Z,0.73
2023-03-28T22:15:42.444Z,0.70
2023-03-28T22:20:54.626Z,0.69
2023-03-28T22:26:00.153Z,0.70
2023-03-28T22:31:05.759Z,0.68
2023-03-28T22:36:13.181Z,0.66
2023-03-28T22:41:18.506Z,0.64
2023-03-28T22:46:23.825Z,0.60
2023-03-28T22:51:29.897Z,0.50
2023-03-28T22:56:35.469Z,0.39
2023-03-28T23:01:40.793Z,0.29
2023-03-28T23:06:46.257Z,0.25
2023-03-28T23:11:51.888Z,0.25
2023-03-28T23:16:58.266Z,0.25
2023-03-28T23:22:04.259Z,0.21
2023-03-28T23:27:09.606Z,0.19
2023-03-28T23:32:14.885Z,0.19
2023-03-28T23:37:20.488Z,0.16
2023-03-28T23:42:26.326Z,0.13
2023-03-28T23:47:31.811Z,0.08
2023-03-28T23:52:37.438Z,0.04
2023-03-28T23:57:43.058Z,0.00
